createdAt,value
2022-09-28T00:00:12.875Z,92074.75
2022-09-28T00:01:44.855Z,92065.75
2022-09-28T00:03:16.530Z,92068.34
2022-09-28T00:04:48.275Z,92072.13
2022-09-28T00:06:21.998Z,92069.41
2022-09-28T00:07:54.241Z,92070.66
2022-09-28T00:09:26.323Z,92066.00
2022-09-28T00:10:57.986Z,92068.47
2022-09-28T00:12:35.196Z,92070.03
2022-09-28T00:14:07.892Z,92070.81
2022-09-28T00:15:42.130Z,92064.28
2022-09-28T00:17:14.149Z,92060.88
2022-09-28T00:18:45.884Z,92061.81
2022-09-28T00:20:18.173Z,92060.41
2022-09-28T00:21:52.517Z,92063.13
2022-09-28T00:23:24.049Z,92058.06
2022-09-28T00:24:55.590Z,92056.41
2022-09-28T00:26:27.611Z,92064.44
2022-09-28T00:27:59.257Z,92066.00
2022-09-28T00:29:31.866Z,92054.75
2022-09-28T00:31:03.502Z,92058.78
2022-09-28T00:32:35.383Z,92067.03
2022-09-28T00:34:07.344Z,92062.16
2022-09-28T00:35:39.342Z,92064.94
2022-09-28T00:37:11.104Z,92066.50
2022-09-28T00:38:43.022Z,92061.88
2022-09-28T00:40:14.715Z,92056.47
2022-09-28T00:41:47.155Z,92057.69
2022-09-28T00:43:22.349Z,92054.22
2022-09-28T00:44:54.536Z,92060.75
2022-09-28T00:46:31.774Z,92050.84
2022-09-28T00:48:03.819Z,92050.91
2022-09-28T00:49:42.019Z,92046.38
2022-09-28T00:51:14.077Z,92049.06
2022-09-28T00:52:49.099Z,92053.59
2022-09-28T00:54:20.564Z,92048.56
2022-09-28T00:55:52.947Z,92046.88
2022-09-28T00:57:24.627Z,92050.28
2022-09-28T00:58:56.541Z,92056.75
2022-09-28T01:00:28.115Z,92046.19
2022-09-28T01:02:00.026Z,92049.19
2022-09-28T01:03:32.017Z,92050.22
2022-09-28T01:05:03.723Z,92055.53
2022-09-28T01:06:36.637Z,92050.06
2022-09-28T01:08:08.732Z,92053.81
2022-09-28T01:09:40.795Z,92051.34
2022-09-28T01:11:13.062Z,92054.69
2022-09-28T01:12:44.611Z,92058.06
2022-09-28T01:14:16.735Z,92048.75
2022-09-28T01:15:50.247Z,92056.78
2022-09-28T01:17:28.615Z,92051.03
2022-09-28T01:19:05.874Z,92047.19
2022-09-28T01:20:43.601Z,92051.44
2022-09-28T01:22:33.766Z,92049.19
2022-09-28T01:24:14.058Z,92051.53
2022-09-28T01:25:48.525Z,92052.75
2022-09-28T01:27:20.320Z,92057.88
2022-09-28T01:29:01.031Z,92059.91
2022-09-28T01:30:34.850Z,92063.16
2022-09-28T01:32:14.796Z,92059.38
2022-09-28T01:33:47.665Z,92061.38
2022-09-28T01:35:25.446Z,92059.91
2022-09-28T01:36:57.034Z,92060.34
2022-09-28T01:38:59.031Z,92063.56
2022-09-28T01:40:30.563Z,92058.25
2022-09-28T01:42:06.436Z,92062.06
2022-09-28T01:43:39.470Z,92056.75
2022-09-28T01:45:19.106Z,92065.66
2022-09-28T01:46:54.103Z,92057.94
2022-09-28T01:48:46.918Z,92060.66
2022-09-28T01:50:19.482Z,92067.72
2022-09-28T01:51:52.748Z,92064.34
2022-09-28T01:53:35.165Z,92058.38
2022-09-28T01:55:06.920Z,92060.25
2022-09-28T01:56:39.519Z,92062.94
2022-09-28T01:58:14.085Z,92061.03
2022-09-28T01:59:47.980Z,92067.56
2022-09-28T02:01:22.797Z,92066.25
2022-09-28T02:03:13.454Z,92068.88
2022-09-28T02:04:45.577Z,92063.75
2022-09-28T02:06:19.220Z,92064.88
2022-09-28T02:07:54.925Z,92063.22
2022-09-28T02:09:33.566Z,92070.19
2022-09-28T02:11:05.763Z,92066.69
2022-09-28T02:13:00.532Z,92069.41
2022-09-28T02:14:32.147Z,92061.66
2022-09-28T02:16:05.903Z,92061.56
2022-09-28T02:17:37.617Z,92062.25
2022-09-28T02:19:13.458Z,92063.41
2022-09-28T02:20:47.799Z,92070.38
2022-09-28T02:22:26.111Z,92069.75
2022-09-28T02:23:58.404Z,92070.78
2022-09-28T02:25:48.639Z,92063.75
2022-09-28T02:27:40.738Z,92062.53
2022-09-28T02:29:13.108Z,92066.47
2022-09-28T02:30:44.681Z,92049.34
2022-09-28T02:32:17.066Z,92061.19
2022-09-28T02:33:48.686Z,92056.84
2022-09-28T02:35:20.654Z,92066.78
2022-09-28T02:36:55.356Z,92059.81
2022-09-28T02:38:27.551Z,92056.41
2022-09-28T02:39:59.155Z,92056.84
2022-09-28T02:41:42.212Z,92055.03
2022-09-28T02:43:23.983Z,92059.38
2022-09-28T02:45:16.290Z,92062.88
2022-09-28T02:46:51.262Z,92066.34
2022-09-28T02:48:44.080Z,92060.16
2022-09-28T02:50:35.931Z,92068.09
2022-09-28T02:52:13.896Z,92059.66
2022-09-28T02:53:49.310Z,92069.66
2022-09-28T02:55:26.771Z,92063.47
2022-09-28T02:57:12.758Z,92067.31
2022-09-28T02:58:44.405Z,92062.53
2022-09-28T03:00:19.100Z,92071.66
2022-09-28T03:02:11.058Z,92070.03
2022-09-28T03:03:42.834Z,92076.72
2022-09-28T03:05:16.063Z,92069.03
2022-09-28T03:06:48.849Z,92065.44
2022-09-28T03:08:37.785Z,92068.41
2022-09-28T03:10:31.079Z,92067.41
2022-09-28T03:12:12.458Z,92078.47
2022-09-28T03:13:43.952Z,92066.53
2022-09-28T03:15:25.642Z,92070.81
2022-09-28T03:16:57.356Z,92066.53
2022-09-28T03:18:29.528Z,92069.25
2022-09-28T03:20:01.144Z,92075.84
2022-09-28T03:21:32.644Z,92082.81
2022-09-28T03:23:23.906Z,92074.38
2022-09-28T03:24:56.148Z,92084.84
2022-09-28T03:26:27.828Z,92084.50
2022-09-28T03:27:59.759Z,92080.66
2022-09-28T03:29:33.323Z,92086.53
2022-09-28T03:31:05.186Z,92090.53
2022-09-28T03:32:37.259Z,92086.88
2022-09-28T03:34:09.034Z,92089.78
2022-09-28T03:35:41.109Z,92086.41
2022-09-28T03:37:12.731Z,92091.88
2022-09-28T03:38:44.462Z,92086.81
2022-09-28T03:40:16.024Z,92090.31
2022-09-28T03:41:47.895Z,92084.91
2022-09-28T03:43:19.416Z,92086.03
2022-09-28T03:44:51.081Z,92081.00
2022-09-28T03:46:22.806Z,92081.34
2022-09-28T03:47:54.445Z,92087.53
2022-09-28T03:49:25.976Z,92089.50
2022-09-28T03:50:58.011Z,92089.09
2022-09-28T03:52:29.614Z,92087.09
2022-09-28T03:54:01.414Z,92089.00
2022-09-28T03:55:32.979Z,92087.88
2022-09-28T03:57:04.625Z,92095.63
2022-09-28T03:58:36.371Z,92091.34
2022-09-28T04:00:08.407Z,92102.50
2022-09-28T04:01:40.174Z,92103.63
2022-09-28T04:03:11.762Z,92095.09
2022-09-28T04:04:43.584Z,92100.94
2022-09-28T04:06:15.162Z,92099.69
2022-09-28T04:07:46.924Z,92099.69
2022-09-28T04:09:18.874Z,92099.00
2022-09-28T04:10:50.542Z,92095.97
2022-09-28T04:12:22.142Z,92095.19
2022-09-28T04:13:53.708Z,92105.09
2022-09-28T04:15:25.314Z,92096.56
2022-09-28T04:16:57.134Z,92102.66
2022-09-28T04:18:28.911Z,92104.72
2022-09-28T04:20:00.405Z,92107.78
2022-09-28T04:21:31.964Z,92100.03
2022-09-28T04:23:03.803Z,92105.94
2022-09-28T04:24:35.470Z,92107.84
2022-09-28T04:26:08.043Z,92111.00
2022-09-28T04:27:58.998Z,92107.19
2022-09-28T04:29:31.409Z,92109.31
2022-09-28T04:31:03.498Z,92103.84
2022-09-28T04:32:35.225Z,92108.34
2022-09-28T04:34:07.031Z,92101.63
2022-09-28T04:35:38.712Z,92092.50
2022-09-28T04:37:10.557Z,92098.25
2022-09-28T04:38:52.874Z,92087.03
2022-09-28T04:40:25.228Z,92099.41
2022-09-28T04:41:56.785Z,92103.31
2022-09-28T04:43:28.916Z,92100.72
2022-09-28T04:45:01.156Z,92092.03
2022-09-28T04:46:32.719Z,92095.75
2022-09-28T04:48:06.305Z,92095.13
2022-09-28T04:49:38.579Z,92093.69
2022-09-28T04:51:10.183Z,92094.97
2022-09-28T04:52:41.689Z,92091.81
2022-09-28T04:54:13.222Z,92100.09
2022-09-28T04:55:45.232Z,92102.72
2022-09-28T04:57:16.857Z,92099.94
2022-09-28T04:58:52.623Z,92092.88
2022-09-28T05:00:24.552Z,92103.84
2022-09-28T05:01:56.145Z,92105.88
2022-09-28T05:03:27.689Z,92112.84
2022-09-28T05:04:59.344Z,92114.75
2022-09-28T05:06:30.947Z,92107.25
2022-09-28T05:08:02.572Z,92114.16
2022-09-28T05:09:38.241Z,92113.28
2022-09-28T05:11:13.651Z,92118.56
2022-09-28T05:12:46.153Z,92118.91
2022-09-28T05:14:17.725Z,92124.69
2022-09-28T05:15:54.869Z,92126.19
2022-09-28T05:17:29.105Z,92135.41
2022-09-28T05:19:00.743Z,92135.06
2022-09-28T05:20:32.412Z,92136.38
2022-09-28T05:22:04.930Z,92134.72
2022-09-28T05:23:37.380Z,92137.44
2022-09-28T05:25:09.624Z,92130.06
2022-09-28T05:26:41.276Z,92134.31
2022-09-28T05:28:13.816Z,92132.38
2022-09-28T05:29:46.121Z,92137.72
2022-09-28T05:31:17.735Z,92138.75
2022-09-28T05:32:52.029Z,92141.69
2022-09-28T05:34:24.830Z,92137.66
2022-09-28T05:36:00.918Z,92142.94
2022-09-28T05:37:33.026Z,92153.22
2022-09-28T05:39:04.956Z,92144.72
2022-09-28T05:40:36.489Z,92148.31
2022-09-28T05:42:08.248Z,92154.31
2022-09-28T05:43:39.914Z,92161.94
2022-09-28T05:45:11.540Z,92155.81
2022-09-28T05:46:43.307Z,92155.66
2022-09-28T05:48:14.840Z,92161.94
2022-09-28T05:49:46.386Z,92161.66
2022-09-28T05:51:18.083Z,92155.53
2022-09-28T05:53:01.588Z,92150.31
2022-09-28T05:54:33.111Z,92151.38
2022-09-28T05:56:04.698Z,92150.44
2022-09-28T05:57:36.272Z,92155.03
2022-09-28T05:59:07.946Z,92157.56
2022-09-28T06:00:39.555Z,92161.59
2022-09-28T06:02:11.264Z,92167.31
2022-09-28T06:03:42.865Z,92164.41
2022-09-28T06:05:14.499Z,92160.00
2022-09-28T06:06:46.031Z,92159.78
2022-09-28T06:08:17.594Z,92161.91
2022-09-28T06:09:50.496Z,92165.91
2022-09-28T06:11:22.135Z,92164.84
2022-09-28T06:12:57.218Z,92163.91
2022-09-28T06:14:28.839Z,92156.00
2022-09-28T06:16:01.241Z,92164.34
2022-09-28T06:17:32.753Z,92166.84
2022-09-28T06:19:04.339Z,92165.94
2022-09-28T06:20:36.793Z,92166.84
2022-09-28T06:22:08.973Z,92166.22
2022-09-28T06:23:42.716Z,92166.81
2022-09-28T06:25:16.235Z,92166.94
2022-09-28T06:26:47.878Z,92170.88
2022-09-28T06:28:19.461Z,92169.31
2022-09-28T06:29:51.029Z,92170.19
2022-09-28T06:31:24.597Z,92170.97
2022-09-28T06:32:56.566Z,92171.44
2022-09-28T06:34:30.112Z,92170.72
2022-09-28T06:36:01.932Z,92167.22
2022-09-28T06:37:33.493Z,92163.72
2022-09-28T06:39:05.044Z,92161.41
2022-09-28T06:40:37.381Z,92159.13
2022-09-28T06:42:09.024Z,92168.53
2022-09-28T06:43:40.631Z,92178.31
2022-09-28T06:45:12.541Z,92179.84
2022-09-28T06:46:44.464Z,92179.84
2022-09-28T06:48:17.672Z,92178.41
2022-09-28T06:49:51.535Z,92179.25
2022-09-28T06:51:23.211Z,92183.19
2022-09-28T06:52:57.697Z,92173.09
2022-09-28T06:54:31.595Z,92175.84
2022-09-28T06:56:03.294Z,92183.25
2022-09-28T06:57:38.935Z,92172.31
2022-09-28T06:59:11.098Z,92176.22
2022-09-28T07:00:44.163Z,92172.31
2022-09-28T07:02:18.400Z,92174.25
2022-09-28T07:03:54.842Z,92178.47
2022-09-28T07:05:27.833Z,92175.69
2022-09-28T07:07:02.725Z,92176.75
2022-09-28T07:08:34.280Z,92176.75
2022-09-28T07:10:06.548Z,92175.91
2022-09-28T07:11:39.995Z,92179.81
2022-09-28T07:13:29.834Z,92179.06
2022-09-28T07:15:03.955Z,92181.13
2022-09-28T07:17:03.691Z,92177.72
2022-09-28T07:18:30.119Z,92181.72
2022-09-28T07:20:11.942Z,92184.06
2022-09-28T07:21:58.900Z,92185.25
2022-09-28T07:23:37.607Z,92182.09
2022-09-28T07:25:14.426Z,92183.69
2022-09-28T07:26:46.060Z,92179.47
2022-09-28T07:28:17.849Z,92180.69
2022-09-28T07:29:50.014Z,92182.34
2022-09-28T07:31:21.600Z,92182.28
2022-09-28T07:32:56.239Z,92183.81
2022-09-28T07:34:27.911Z,92181.06
2022-09-28T07:36:00.946Z,92178.78
2022-09-28T07:37:32.693Z,92182.66
2022-09-28T07:39:04.247Z,92180.34
2022-09-28T07:40:54.576Z,92186.56
2022-09-28T07:42:29.854Z,92194.69
2022-09-28T07:44:06.395Z,92197.38
2022-09-28T07:45:38.610Z,92199.25
2022-09-28T07:47:10.205Z,92198.38
2022-09-28T07:48:42.394Z,92196.41
2022-09-28T07:50:14.019Z,92195.50
2022-09-28T07:51:45.627Z,92191.91
2022-09-28T07:53:17.773Z,92199.28
2022-09-28T07:54:52.361Z,92196.59
2022-09-28T07:56:24.250Z,92197.84
2022-09-28T07:57:56.513Z,92193.19
2022-09-28T07:59:28.147Z,92196.31
2022-09-28T08:01:02.588Z,92193.19
2022-09-28T08:02:35.561Z,92192.41
2022-09-28T08:04:07.218Z,92198.59
2022-09-28T08:05:39.233Z,92190.38
2022-09-28T08:07:11.481Z,92194.66
2022-09-28T08:08:44.900Z,92202.84
2022-09-28T08:10:17.597Z,92193.88
2022-09-28T08:11:50.132Z,92191.94
2022-09-28T08:13:23.543Z,92198.53
2022-09-28T08:15:00.263Z,92197.84
2022-09-28T08:16:32.682Z,92207.19
2022-09-28T08:18:04.671Z,92206.06
2022-09-28T08:19:55.122Z,92210.41
2022-09-28T08:21:45.298Z,92213.53
2022-09-28T08:23:17.242Z,92210.84
2022-09-28T08:24:49.422Z,92209.69
2022-09-28T08:26:21.134Z,92215.16
2022-09-28T08:27:52.666Z,92205.47
2022-09-28T08:29:24.217Z,92207.47
2022-09-28T08:30:55.854Z,92211.44
2022-09-28T08:32:27.615Z,92207.13
2022-09-28T08:33:59.311Z,92204.72
2022-09-28T08:35:31.679Z,92203.53
2022-09-28T08:37:03.494Z,92205.13
2022-09-28T08:38:35.117Z,92203.56
2022-09-28T08:40:07.011Z,92209.13
2022-09-28T08:42:10.800Z,92201.84
2022-09-28T08:43:54.555Z,92205.41
2022-09-28T08:45:26.764Z,92205.81
2022-09-28T08:47:05.364Z,92205.84
2022-09-28T08:49:13.515Z,92205.50
2022-09-28T08:50:56.723Z,92199.66
2022-09-28T08:52:29.570Z,92212.97
2022-09-28T08:54:08.161Z,92205.16
2022-09-28T08:55:42.873Z,92202.81
2022-09-28T08:57:20.694Z,92189.16
2022-09-28T08:58:53.243Z,92195.41
2022-09-28T09:00:46.935Z,92195.81
2022-09-28T09:02:21.247Z,92195.44
2022-09-28T09:03:53.036Z,92189.22
2022-09-28T09:05:27.066Z,92184.13
2022-09-28T09:07:14.438Z,92198.19
2022-09-28T09:08:46.463Z,92189.59
2022-09-28T09:10:18.267Z,92190.78
2022-09-28T09:11:57.524Z,92208.34
2022-09-28T09:13:48.055Z,92197.03
2022-09-28T09:15:29.054Z,92193.88
2022-09-28T09:17:01.190Z,92191.13
2022-09-28T09:18:36.367Z,92187.25
2022-09-28T09:20:25.429Z,92193.06
2022-09-28T09:22:05.432Z,92200.50
2022-09-28T09:23:38.564Z,92187.22
2022-09-28T09:25:20.541Z,92184.84
2022-09-28T09:26:54.873Z,92187.56
2022-09-28T09:28:33.958Z,92191.47
2022-09-28T09:30:12.857Z,92195.78
2022-09-28T09:32:07.819Z,92191.44
2022-09-28T09:33:54.824Z,92192.63
2022-09-28T09:35:30.705Z,92189.06
2022-09-28T09:37:05.951Z,92182.00
2022-09-28T09:39:01.056Z,92199.97
2022-09-28T09:40:41.211Z,92196.50
2022-09-28T09:42:31.876Z,92193.38
2022-09-28T09:44:22.606Z,92192.59
2022-09-28T09:45:54.738Z,92188.25
2022-09-28T09:47:46.754Z,92200.75
2022-09-28T09:49:20.760Z,92190.59
2022-09-28T09:50:59.546Z,92185.91
2022-09-28T09:52:37.767Z,92185.44
2022-09-28T09:54:31.942Z,92188.56
2022-09-28T09:56:23.463Z,92192.06
2022-09-28T09:57:57.099Z,92190.50
2022-09-28T09:59:32.212Z,92192.09
2022-09-28T10:01:11.418Z,92191.28
2022-09-28T10:02:44.312Z,92187.72
2022-09-28T10:04:18.195Z,92190.00
2022-09-28T10:05:56.197Z,92184.47
2022-09-28T10:07:33.834Z,92180.06
2022-09-28T10:09:06.706Z,92188.22
2022-09-28T10:10:40.452Z,92173.75
2022-09-28T10:12:15.253Z,92176.88
2022-09-28T10:13:49.360Z,92176.03
2022-09-28T10:15:25.428Z,92174.00
2022-09-28T10:16:57.155Z,92170.84
2022-09-28T10:18:28.983Z,92178.22
2022-09-28T10:20:00.613Z,92183.28
2022-09-28T10:21:37.743Z,92178.91
2022-09-28T10:23:22.927Z,92174.19
2022-09-28T10:24:57.261Z,92171.69
2022-09-28T10:26:39.225Z,92171.94
2022-09-28T10:28:10.997Z,92164.06
2022-09-28T10:30:15.485Z,92158.56
2022-09-28T10:31:51.160Z,92167.97
2022-09-28T10:33:32.781Z,92168.84
2022-09-28T10:35:19.832Z,92162.72
2022-09-28T10:36:56.503Z,92155.34
2022-09-28T10:38:28.605Z,92156.84
2022-09-28T10:40:00.297Z,92168.97
2022-09-28T10:41:32.375Z,92150.16
2022-09-28T10:43:05.326Z,92161.41
2022-09-28T10:44:57.604Z,92142.22
2022-09-28T10:46:29.342Z,92146.72
2022-09-28T10:48:01.865Z,92154.84
2022-09-28T10:49:46.546Z,92150.38
2022-09-28T10:51:19.042Z,92142.81
2022-09-28T10:52:52.387Z,92136.84
2022-09-28T10:54:25.675Z,92137.09
2022-09-28T10:55:59.351Z,92140.50
2022-09-28T10:57:34.723Z,92144.84
2022-09-28T10:59:24.910Z,92142.63
2022-09-28T11:01:03.759Z,92135.72
2022-09-28T11:02:36.329Z,92131.44
2022-09-28T11:04:17.126Z,92125.81
2022-09-28T11:05:58.089Z,92127.53
2022-09-28T11:07:33.740Z,92138.25
2022-09-28T11:09:20.245Z,92128.47
2022-09-28T11:11:01.764Z,92133.38
2022-09-28T11:12:36.322Z,92128.44
2022-09-28T11:14:17.293Z,92123.44
2022-09-28T11:15:50.376Z,92128.22
2022-09-28T11:17:26.460Z,92125.88
2022-09-28T11:18:58.851Z,92116.56
2022-09-28T11:20:31.896Z,92114.59
2022-09-28T11:22:03.596Z,92111.47
2022-09-28T11:23:35.299Z,92115.78
2022-09-28T11:25:14.363Z,92121.75
2022-09-28T11:26:46.687Z,92106.06
2022-09-28T11:28:25.233Z,92107.16
2022-09-28T11:29:59.976Z,92112.22
2022-09-28T11:31:31.565Z,92108.75
2022-09-28T11:33:12.720Z,92104.88
2022-09-28T11:34:58.517Z,92106.47
2022-09-28T11:36:43.403Z,92107.22
2022-09-28T11:38:17.667Z,92103.94
2022-09-28T11:39:49.302Z,92111.75
2022-09-28T11:41:24.217Z,92100.72
2022-09-28T11:43:01.948Z,92107.25
2022-09-28T11:44:37.536Z,92108.38
2022-09-28T11:46:14.842Z,92104.44
2022-09-28T11:47:49.630Z,92101.41
2022-09-28T11:49:27.417Z,92102.66
2022-09-28T11:51:00.339Z,92102.66
2022-09-28T11:52:37.275Z,92097.13
2022-09-28T11:54:20.223Z,92099.81
2022-09-28T11:55:57.228Z,92087.66
2022-09-28T11:57:29.937Z,92081.00
2022-09-28T11:59:11.369Z,92093.94
2022-09-28T12:00:46.758Z,92096.72
2022-09-28T12:02:23.607Z,92090.50
2022-09-28T12:03:56.621Z,92094.53
2022-09-28T12:05:29.214Z,92097.69
2022-09-28T12:07:04.500Z,92100.50
2022-09-28T12:08:37.562Z,92095.47
2022-09-28T12:10:17.510Z,92097.88
2022-09-28T12:11:50.149Z,92089.34
2022-09-28T12:13:31.349Z,92091.69
2022-09-28T12:15:26.314Z,92090.56
2022-09-28T12:17:20.276Z,92084.31
2022-09-28T12:18:58.007Z,92086.28
2022-09-28T12:20:31.354Z,92088.63
2022-09-28T12:22:10.519Z,92089.41
2022-09-28T12:23:42.199Z,92097.63
2022-09-28T12:25:14.768Z,92097.63
2022-09-28T12:26:48.489Z,92099.19
2022-09-28T12:28:19.984Z,92094.84
2022-09-28T12:30:01.063Z,92095.25
2022-09-28T12:31:38.728Z,92088.22
2022-09-28T12:33:15.257Z,92090.59
2022-09-28T12:34:46.856Z,92087.13
2022-09-28T12:36:28.583Z,92082.06
2022-09-28T12:38:32.732Z,92091.50
2022-09-28T12:40:13.241Z,92092.34
2022-09-28T12:42:00.019Z,92096.69
2022-09-28T12:43:53.588Z,92090.50
2022-09-28T12:46:09.774Z,92090.50
2022-09-28T12:47:54.319Z,92096.75
2022-09-28T12:50:36.640Z,92092.47
2022-09-28T12:51:39.430Z,92101.91
2022-09-28T12:53:14.139Z,92096.09
2022-09-28T12:55:05.058Z,92094.91
2022-09-28T12:56:41.585Z,92094.97
2022-09-28T12:58:18.935Z,92094.19
2022-09-28T13:00:01.394Z,92100.03
2022-09-28T13:01:43.683Z,92092.22
2022-09-28T13:03:35.383Z,92087.53
2022-09-28T13:05:16.394Z,92097.69
2022-09-28T13:07:00.263Z,92094.91
2022-09-28T13:08:37.777Z,92101.13
2022-09-28T13:10:16.921Z,92090.16
2022-09-28T13:12:07.591Z,92101.06
2022-09-28T13:13:51.947Z,92103.75
2022-09-28T13:15:28.158Z,92098.94
2022-09-28T13:17:00.745Z,92091.44
2022-09-28T13:18:39.148Z,92102.72
2022-09-28T13:20:13.442Z,92101.00
2022-09-28T13:21:52.053Z,92095.72
2022-09-28T13:23:31.399Z,92092.19
2022-09-28T13:25:04.003Z,92095.31
2022-09-28T13:26:40.759Z,92096.00
2022-09-28T13:28:13.097Z,92095.81
2022-09-28T13:29:45.692Z,92091.84
2022-09-28T13:31:30.868Z,92087.09
2022-09-28T13:33:04.449Z,92087.94
2022-09-28T13:34:36.574Z,92095.38
2022-09-28T13:36:29.432Z,92079.25
2022-09-28T13:38:16.700Z,92087.09
2022-09-28T13:39:52.587Z,92089.03
2022-09-28T13:41:33.579Z,92075.28
2022-09-28T13:43:09.803Z,92078.03
2022-09-28T13:44:48.052Z,92080.41
2022-09-28T13:46:29.211Z,92077.72
2022-09-28T13:48:16.654Z,92083.66
2022-09-28T13:49:51.652Z,92079.53
2022-09-28T13:51:31.108Z,92088.94
2022-09-28T13:53:06.613Z,92082.31
2022-09-28T13:54:53.538Z,92079.25
2022-09-28T13:56:43.722Z,92084.34
2022-09-28T13:58:18.057Z,92080.50
2022-09-28T13:59:52.274Z,92080.56
2022-09-28T14:01:29.084Z,92076.69
2022-09-28T14:03:06.581Z,92079.47
2022-09-28T14:04:53.487Z,92067.69
2022-09-28T14:06:26.224Z,92075.50
2022-09-28T14:08:09.779Z,92071.88
2022-09-28T14:09:48.675Z,92070.63
2022-09-28T14:11:25.100Z,92075.75
2022-09-28T14:12:56.816Z,92073.78
2022-09-28T14:14:48.746Z,92074.56
2022-09-28T14:16:23.838Z,92077.38
2022-09-28T14:17:55.585Z,92070.41
2022-09-28T14:19:32.098Z,92069.69
2022-09-28T14:21:12.575Z,92066.22
2022-09-28T14:22:44.585Z,92069.44
2022-09-28T14:24:31.479Z,92069.06
2022-09-28T14:26:07.028Z,92059.66
2022-09-28T14:27:47.727Z,92069.44
2022-09-28T14:29:39.553Z,92073.00
2022-09-28T14:31:15.785Z,92064.44
2022-09-28T14:32:58.160Z,92068.41
2022-09-28T14:34:34.403Z,92064.84
2022-09-28T14:36:06.759Z,92066.41
2022-09-28T14:38:14.314Z,92068.75
2022-09-28T14:40:04.780Z,92067.50
2022-09-28T14:41:36.975Z,92067.47
2022-09-28T14:43:20.884Z,92065.13
2022-09-28T14:45:07.047Z,92072.50
2022-09-28T14:46:48.396Z,92067.84
2022-09-28T14:48:21.293Z,92072.97
2022-09-28T14:49:59.883Z,92064.72
2022-09-28T14:51:33.235Z,92069.75
2022-09-28T14:53:05.711Z,92060.34
2022-09-28T14:54:42.066Z,92057.13
2022-09-28T14:56:13.994Z,92067.31
2022-09-28T14:57:46.672Z,92065.44
2022-09-28T14:59:24.969Z,92061.13
2022-09-28T15:01:02.238Z,92061.91
2022-09-28T15:02:33.938Z,92065.06
2022-09-28T15:04:05.555Z,92070.94
2022-09-28T15:05:44.365Z,92071.41
2022-09-28T15:07:27.041Z,92072.66
2022-09-28T15:08:58.754Z,92071.50
2022-09-28T15:10:33.903Z,92067.66
2022-09-28T15:12:07.751Z,92070.78
2022-09-28T15:13:40.958Z,92067.25
2022-09-28T15:15:19.586Z,92084.50
2022-09-28T15:16:51.343Z,92068.13
2022-09-28T15:18:44.092Z,92077.16
2022-09-28T15:20:20.662Z,92083.47
2022-09-28T15:21:52.151Z,92081.13
2022-09-28T15:23:43.377Z,92080.34
2022-09-28T15:25:16.928Z,92072.53
2022-09-28T15:26:48.517Z,92078.00
2022-09-28T15:28:22.750Z,92083.47
2022-09-28T15:29:58.370Z,92081.13
2022-09-28T15:31:30.624Z,92085.03
2022-09-28T15:33:21.483Z,92082.72
2022-09-28T15:34:54.686Z,92087.81
2022-09-28T15:36:26.817Z,92079.28
2022-09-28T15:43:30.324Z,92083.56
2022-09-28T15:45:03.459Z,92089.84
2022-09-28T15:46:36.784Z,92088.28
2022-09-28T15:48:21.033Z,92087.53
2022-09-28T15:50:02.159Z,92094.97
2022-09-28T15:51:45.207Z,92096.19
2022-09-28T15:53:17.624Z,92087.59
2022-09-28T15:54:49.344Z,92096.97
2022-09-28T15:56:20.860Z,92088.41
2022-09-28T15:58:05.174Z,92085.66
2022-09-28T15:59:39.673Z,92088.78
2022-09-28T16:01:20.203Z,92083.72
2022-09-28T16:03:05.592Z,92075.13
2022-09-28T16:04:43.530Z,92078.66
2022-09-28T16:06:15.160Z,92076.72
2022-09-28T16:07:56.029Z,92081.78
2022-09-28T16:09:33.158Z,92085.31
2022-09-28T16:11:16.872Z,92087.66
2022-09-28T16:12:56.560Z,92084.94
2022-09-28T16:14:28.853Z,92085.34
2022-09-28T16:16:00.796Z,92098.25
2022-09-28T16:17:34.147Z,92092.38
2022-09-28T16:19:05.690Z,92089.66
2022-09-28T16:20:38.009Z,92101.00
2022-09-28T16:22:10.051Z,92089.25
2022-09-28T16:23:41.618Z,92095.09
2022-09-28T16:25:16.698Z,92091.97
2022-09-28T16:26:49.313Z,92100.16
2022-09-28T16:28:30.391Z,92101.72
2022-09-28T16:30:13.225Z,92097.84
2022-09-28T16:31:52.690Z,92107.97
2022-09-28T16:33:28.280Z,92105.63
2022-09-28T16:35:18.816Z,92107.19
2022-09-28T16:36:50.776Z,92106.81
2022-09-28T16:38:22.281Z,92106.03
2022-09-28T16:39:53.960Z,92110.31
2022-09-28T16:41:26.295Z,92105.63
2022-09-28T16:42:58.675Z,92107.56
2022-09-28T16:44:31.974Z,92113.81
2022-09-28T16:46:16.241Z,92114.22
2022-09-28T16:47:51.972Z,92113.44
2022-09-28T16:49:23.690Z,92106.81
2022-09-28T16:50:55.569Z,92100.56
2022-09-28T16:52:46.474Z,92107.19
2022-09-28T16:54:40.810Z,92105.63
2022-09-28T16:56:12.454Z,92103.66
2022-09-28T16:57:44.651Z,92112.25
2022-09-28T16:59:16.469Z,92106.41
2022-09-28T17:00:48.142Z,92108.75
2022-09-28T17:02:45.134Z,92115.38
2022-09-28T17:04:12.445Z,92116.94
2022-09-28T17:05:44.289Z,92109.53
2022-09-28T17:07:15.964Z,92118.91
2022-09-28T17:08:47.843Z,92115.00
2022-09-28T17:10:29.552Z,92113.41
2022-09-28T17:12:01.579Z,92108.72
2022-09-28T17:13:37.553Z,92113.41
2022-09-28T17:15:09.371Z,92105.59
2022-09-28T17:18:33.329Z,92108.69
2022-09-28T17:20:09.754Z,92111.44
2022-09-28T17:21:41.319Z,92114.19
2022-09-28T17:23:13.269Z,92110.66
2022-09-28T17:24:46.285Z,92115.34
2022-09-28T17:26:19.614Z,92121.19
2022-09-28T17:27:51.303Z,92124.69
2022-09-28T17:29:23.876Z,92124.28
2022-09-28T17:30:55.823Z,92120.75
2022-09-28T17:32:27.518Z,92121.94
2022-09-28T17:33:59.122Z,92123.09
2022-09-28T17:35:30.967Z,92124.25
2022-09-28T17:37:02.616Z,92131.59
2022-09-28T17:38:34.716Z,92122.59
2022-09-28T17:40:17.308Z,92130.41
2022-09-28T17:41:48.980Z,92137.00
2022-09-28T17:43:22.463Z,92139.75
2022-09-28T17:44:54.072Z,92132.38
2022-09-28T17:46:27.173Z,92141.34
2022-09-28T17:47:58.844Z,92137.44
2022-09-28T17:49:30.409Z,92147.56
2022-09-28T17:51:02.222Z,92145.22
2022-09-28T17:52:33.955Z,92144.03
2022-09-28T17:54:06.331Z,92145.53
2022-09-28T17:55:38.110Z,92142.78
2022-09-28T17:57:10.671Z,92144.72
2022-09-28T17:58:42.265Z,92145.88
2022-09-28T18:00:14.109Z,92155.97
2022-09-28T18:01:45.892Z,92158.28
2022-09-28T18:03:24.228Z,92163.41
2022-09-28T18:04:55.807Z,92157.53
2022-09-28T18:06:27.411Z,92164.53
2022-09-28T18:07:59.489Z,92169.19
2022-09-28T18:09:31.551Z,92164.53
2022-09-28T18:11:03.184Z,92166.84
2022-09-28T18:12:35.439Z,92169.56
2022-09-28T18:14:11.108Z,92171.56
2022-09-28T18:15:43.363Z,92169.22
2022-09-28T18:17:15.358Z,92175.47
2022-09-28T18:18:47.935Z,92185.59
2022-09-28T18:20:19.876Z,92176.63
2022-09-28T18:21:52.490Z,92179.34
2022-09-28T18:23:24.344Z,92182.47
2022-09-28T18:24:55.887Z,92178.16
2022-09-28T18:26:27.719Z,92185.16
2022-09-28T18:28:00.235Z,92184.41
2022-09-28T18:29:33.447Z,92188.28
2022-09-28T18:31:08.834Z,92191.00
2022-09-28T18:32:40.455Z,92186.31
2022-09-28T18:34:13.963Z,92183.56
2022-09-28T18:35:52.406Z,92185.91
2022-09-28T18:37:24.043Z,92188.22
2022-09-28T18:38:57.485Z,92193.22
2022-09-28T18:40:29.170Z,92184.25
2022-09-28T18:42:02.461Z,92191.63
2022-09-28T18:43:36.319Z,92195.56
2022-09-28T18:45:11.330Z,92188.53
2022-09-28T18:46:43.048Z,92195.19
2022-09-28T18:48:14.807Z,92199.06
2022-09-28T18:49:46.934Z,92192.44
2022-09-28T18:51:19.716Z,92200.25
2022-09-28T18:52:51.264Z,92202.59
2022-09-28T18:54:23.260Z,92203.34